Time;durP1;ratioP1;P1;durP2;ratioP2;P2;SDS_P1;SDS_P2;PMS_P1;PMS_P2;Temp;Humidity;BMP_temperature;BMP_pressure;BME280_temperature;BME280_humidity;BME280_pressure;Samples;Min_cycle;Max_cycle;Signal;HPM_P1;HPM_P2
2023/03/02 00:00:29;;;;;;;23.05;9.05;;;;;;;-1.98;75.37;99821.91;5087388;28;20820;-59
2023/03/02 00:02:55;;;;;;;23.17;9.50;;;;;;;-1.88;77.98;99816.59;5061395;28;20116;-59
2023/03/02 00:05:20;;;;;;;20.35;8.35;;;;;;;-1.85;76.56;99818.09;5082977;28;20110;-59
2023/03/02 00:07:46;;;;;;;16.30;7.93;;;;;;;-1.61;74.31;99817.53;5044171;28;20524;-59
2023/03/02 00:10:11;;;;;;;19.23;8.98;;;;;;;-1.66;75.16;99815.34;5079158;28;20028;-59
2023/03/02 00:12:37;;;;;;;17.45;8.25;;;;;;;-1.65;74.43;99816.16;5070160;28;20048;-59
2023/03/02 00:15:02;;;;;;;18.55;8.50;;;;;;;-1.44;73.26;99806.19;5062771;28;20033;-59
2023/03/02 00:17:28;;;;;;;21.58;8.93;;;;;;;-1.53;73.38;99810.53;5061734;28;20046;-59
2023/03/02 00:19:54;;;;;;;17.38;8.88;;;;;;;-1.50;74.76;99819.09;5075721;28;20386;-59
2023/03/02 00:22:19;;;;;;;19.88;9.23;;;;;;;-1.53;74.76;99822.84;5062452;28;20658;-58
2023/03/02 00:24:45;;;;;;;15.38;7.75;;;;;;;-1.48;73.39;99822.41;5084419;28;20035;-58
2023/03/02 00:27:10;;;;;;;16.27;8.38;;;;;;;-1.35;72.73;99823.69;5059833;28;20463;-58
2023/03/02 00:29:36;;;;;;;24.02;10.20;;;;;;;-1.43;73.06;99822.78;5095625;28;20038;-58
2023/03/02 00:32:02;;;;;;;21.52;9.68;;;;;;;-1.26;73.19;99816.69;5071544;28;20036;-58
2023/03/02 00:34:31;;;;;;;19.70;9.18;;;;;;;-1.19;72.50;99822.19;5052960;28;20047;-58
2023/03/02 00:36:57;;;;;;;19.83;9.57;;;;;;;-1.09;72.71;99823.75;5079443;28;20051;-58
2023/03/02 00:39:22;;;;;;;16.83;8.57;;;;;;;-1.01;73.24;99822.16;5077618;28;20498;-58
2023/03/02 00:41:47;;;;;;;19.52;9.35;;;;;;;-1.10;74.12;99819.47;5086809;28;20024;-59
2023/03/02 00:44:16;;;;;;;18.77;8.63;;;;;;;-1.33;73.49;99821.72;5062905;28;20087;-58
2023/03/02 00:46:42;;;;;;;18.13;8.45;;;;;;;-1.64;74.15;99825.72;5069993;28;20047;-59
2023/03/02 00:49:07;;;;;;;17.67;9.10;;;;;;;-1.67;75.60;99826.84;5085409;28;20419;-58
2023/03/02 00:51:32;;;;;;;22.42;10.05;;;;;;;-1.32;77.91;99820.75;5058707;28;20039;-58
2023/03/02 00:54:01;;;;;;;19.70;8.88;;;;;;;-1.40;73.95;99825.97;5083476;28;20051;-58
2023/03/02 00:56:27;;;;;;;22.33;9.88;;;;;;;-1.48;74.91;99822.41;5074907;28;20024;-58
2023/03/02 00:58:52;;;;;;;18.77;9.43;;;;;;;-1.55;75.52;99833.53;5093590;28;20524;-58
2023/03/02 01:01:18;;;;;;;22.40;9.27;;;;;;;-1.64;76.30;99831.81;5078903;28;20076;-59
2023/03/02 01:03:43;;;;;;;17.70;8.38;;;;;;;-1.71;76.81;99828.09;5081833;28;20028;-58
2023/03/02 01:06:16;;;;;;;19.42;8.93;;;;;;;-1.81;79.96;99829.97;5081808;28;20467;-59
2023/03/02 01:08:41;;;;;;;19.45;9.05;;;;;;;-1.87;79.85;99835.81;5075493;28;20518;-58
2023/03/02 01:11:25;;;;;;;18.73;8.48;;;;;;;-1.66;84.50;99831.13;5085960;28;20021;-60
2023/03/02 01:13:50;;;;;;;21.02;9.18;;;;;;;-1.71;81.06;99819.41;5065236;28;20436;-60
2023/03/02 01:16:16;;;;;;;17.20;9.55;;;;;;;-1.90;78.22;99822.97;5079416;28;20020;-60
2023/03/02 01:18:41;;;;;;;16.98;9.07;;;;;;;-2.11;77.80;99821.44;5087457;28;20310;-59
2023/03/02 01:21:09;;;;;;;18.27;8.95;;;;;;;-2.32;78.97;99819.06;5089053;28;20036;-60
2023/03/02 01:23:34;;;;;;;18.67;9.00;;;;;;;-2.38;79.75;99817.81;5055789;28;20032;-60
2023/03/02 01:26:00;;;;;;;21.77;9.73;;;;;;;-2.33;81.10;99817.38;5082645;28;20036;-61
2023/03/02 01:28:26;;;;;;;20.45;9.18;;;;;;;-2.53;79.19;99816.63;5061177;28;20540;-58
2023/03/02 01:30:51;;;;;;;24.95;10.43;;;;;;;-2.24;85.26;99816.53;5058137;28;20490;-58
2023/03/02 01:33:16;;;;;;;24.30;10.40;;;;;;;-2.36;79.29;99809.78;5084075;28;20421;-59
2023/03/02 01:35:44;;;;;;;17.40;9.82;;;;;;;-2.51;79.81;99803.38;5059441;28;20390;-59
2023/03/02 01:38:10;;;;;;;15.68;9.35;;;;;;;-2.57;79.63;99794.28;5052359;28;20036;-59
2023/03/02 01:40:35;;;;;;;19.05;8.85;;;;;;;-2.57;79.63;99793.44;5095278;28;20047;-59
2023/03/02 01:43:03;;;;;;;21.67;10.05;;;;;;;-2.55;80.76;99794.94;5078388;28;20032;-59
2023/03/02 01:45:58;;;;;;;18.00;9.23;;;;;;;-2.49;83.06;99797.00;5049385;28;20034;-59
2023/03/02 01:48:34;;;;;;;12.82;7.50;;;;;;;-2.45;79.58;99794.91;5076645;28;20044;-59
2023/03/02 01:51:00;;;;;;;18.58;9.27;;;;;;;-2.50;79.87;99795.34;5080504;28;20500;-59
2023/03/02 01:53:27;;;;;;;22.52;8.88;;;;;;;-2.51;81.35;99782.38;5045227;28;20040;-59
2023/03/02 01:55:52;;;;;;;21.08;9.50;;;;;;;-2.80;81.23;99783.28;5065511;28;20123;-59
2023/03/02 01:58:18;;;;;;;23.65;9.30;;;;;;;-2.56;83.13;99785.44;5044084;28;20031;-59
2023/03/02 02:00:43;;;;;;;19.88;8.90;;;;;;;-2.66;82.29;99784.63;5075199;28;20024;-59
2023/03/02 02:03:19;;;;;;;19.88;9.07;;;;;;;-2.40;80.81;99780.41;5078735;28;20012;-59
2023/03/02 02:05:46;;;;;;;19.67;9.18;;;;;;;-2.30;81.43;99777.69;5067012;28;20538;-59
2023/03/02 02:08:12;;;;;;;15.57;8.60;;;;;;;-2.23;81.40;99780.56;5047203;28;20028;-59
2023/03/02 02:10:37;;;;;;;20.50;9.70;;;;;;;-2.28;82.95;99778.38;5046904;28;20470;-59
2023/03/02 02:13:03;;;;;;;18.67;8.75;;;;;;;-2.60;81.50;99776.19;5065199;28;20047;-59
2023/03/02 02:15:28;;;;;;;19.20;9.40;;;;;;;-2.53;80.44;99766.75;5085312;28;20115;-59
2023/03/02 02:17:54;;;;;;;18.88;9.65;;;;;;;-2.53;82.22;99768.56;5043670;28;20036;-59
2023/03/02 02:20:30;;;;;;;20.58;10.18;;;;;;;-2.47;81.36;99771.44;5078016;28;20027;-59
2023/03/02 02:22:55;;;;;;;19.65;9.68;;;;;;;-2.54;81.64;99772.16;5056580;28;20047;-59
2023/03/02 02:25:35;;;;;;;23.45;9.52;;;;;;;-2.52;82.84;99772.81;5082478;28;20035;-60
2023/03/02 02:28:02;;;;;;;19.90;10.07;;;;;;;-2.56;85.21;99777.56;5064263;28;20058;-59
2023/03/02 02:30:28;;;;;;;23.05;9.77;;;;;;;-2.47;81.89;99768.81;5056437;28;20040;-59
2023/03/02 02:32:53;;;;;;;24.83;9.63;;;;;;;-2.09;85.68;99766.13;5055527;28;20498;-59
2023/03/02 02:35:21;;;;;;;20.77;9.25;;;;;;;-2.30;82.55;99764.56;5061315;28;20015;-59
2023/03/02 02:37:50;;;;;;;20.13;9.23;;;;;;;-2.31;80.62;99767.34;5070289;28;20043;-59
2023/03/02 02:40:19;;;;;;;20.35;9.18;;;;;;;-2.48;82.13;99758.44;5061171;28;20403;-59
2023/03/02 02:42:46;;;;;;;19.75;9.80;;;;;;;-2.74;82.03;99753.06;5074102;28;20020;-59
2023/03/02 02:45:23;;;;;;;18.85;8.52;;;;;;;-2.98;82.86;99759.59;5044526;28;20109;-59
2023/03/02 02:47:48;;;;;;;21.45;8.80;;;;;;;-2.89;82.68;99752.69;5069979;28;20438;-59
2023/03/02 02:50:19;;;;;;;17.58;9.05;;;;;;;-3.03;82.88;99751.31;5078960;28;20029;-59
2023/03/02 02:52:46;;;;;;;18.20;8.85;;;;;;;-2.87;82.47;99746.31;5073118;28;20020;-59
2023/03/02 02:55:13;;;;;;;17.50;9.45;;;;;;;-3.09;82.77;99751.91;5049218;28;20035;-59
2023/03/02 02:57:39;;;;;;;16.42;8.82;;;;;;;-3.16;83.92;99750.81;5061424;28;20132;-59
2023/03/02 03:00:05;;;;;;;18.45;8.88;;;;;;;-3.11;84.79;99751.22;5069553;28;20040;-59
2023/03/02 03:02:42;;;;;;;15.60;8.27;;;;;;;-3.04;83.89;99755.75;5079456;28;20027;-59
2023/03/02 03:05:13;;;;;;;21.20;9.18;;;;;;;-3.08;83.65;99751.75;5090664;28;20683;-59
2023/03/02 03:07:38;;;;;;;15.30;8.98;;;;;;;-2.71;82.68;99750.13;5037684;28;20440;-59
2023/03/02 03:10:38;;;;;;;20.05;9.57;;;;;;;-2.67;82.81;99747.06;5078621;28;20028;-59
2023/03/02 03:13:06;;;;;;;19.02;8.95;;;;;;;-2.79;81.74;99745.59;5069978;28;20715;-59
2023/03/02 03:15:34;;;;;;;17.52;8.90;;;;;;;-2.63;82.24;99745.78;5075566;28;20024;-59
2023/03/02 03:17:59;;;;;;;14.38;8.48;;;;;;;-2.83;82.54;99737.19;5074015;28;20040;-59
2023/03/02 03:20:25;;;;;;;25.05;10.15;;;;;;;-2.86;84.06;99737.47;5084872;28;20085;-59
2023/03/02 03:22:53;;;;;;;20.58;9.85;;;;;;;-2.88;82.58;99731.53;5087202;28;20073;-59
2023/03/02 03:25:20;;;;;;;21.67;9.82;;;;;;;-2.97;84.40;99740.28;5082847;28;20027;-59
2023/03/02 03:27:46;;;;;;;20.90;10.07;;;;;;;-3.16;84.13;99735.09;5081221;28;20727;-59
2023/03/02 03:30:12;;;;;;;17.85;9.75;;;;;;;-3.32;86.01;99736.50;5078152;28;20028;-59
2023/03/02 03:32:37;;;;;;;26.08;10.38;;;;;;;-3.54;85.92;99742.06;5055310;28;20036;-59
2023/03/02 03:35:07;;;;;;;19.60;10.57;;;;;;;-3.50;87.25;99732.94;5084842;28;20036;-59
2023/03/02 03:37:33;;;;;;;22.90;11.60;;;;;;;-3.53;88.19;99735.84;5092121;28;20059;-59
2023/03/02 03:39:58;;;;;;;26.48;11.00;;;;;;;-3.60;87.08;99732.09;5060070;28;20474;-59
2023/03/02 03:42:23;;;;;;;22.45;11.25;;;;;;;-3.57;88.99;99731.81;5082455;28;20105;-59
2023/03/02 03:44:49;;;;;;;21.15;9.93;;;;;;;-3.65;87.53;99729.91;5082437;28;20027;-59
2023/03/02 03:47:14;;;;;;;21.25;10.23;;;;;;;-3.19;86.13;99733.56;5075639;28;20039;-59
2023/03/02 03:49:40;;;;;;;19.83;10.63;;;;;;;-3.20;85.44;99734.53;5074436;28;20409;-59
2023/03/02 03:52:05;;;;;;;17.83;10.15;;;;;;;-3.31;86.10;99735.53;5083604;28;20041;-59
2023/03/02 03:54:31;;;;;;;17.90;10.02;;;;;;;-3.33;85.85;99734.84;5075865;28;20028;-59
2023/03/02 03:56:56;;;;;;;23.60;9.98;;;;;;;-3.32;85.90;99741.75;5085257;28;20055;-59
2023/03/02 03:59:22;;;;;;;20.92;9.32;;;;;;;-3.03;85.09;99740.84;5077521;28;20032;-59
2023/03/02 04:01:50;;;;;;;17.48;9.40;;;;;;;-3.14;84.22;99738.41;5060319;28;20050;-59
2023/03/02 04:04:23;;;;;;;19.52;10.02;;;;;;;-3.19;84.55;99730.13;5082459;28;20032;-59
2023/03/02 04:06:49;;;;;;;16.60;9.82;;;;;;;-3.25;85.75;99726.25;5069061;28;20465;-59
2023/03/02 04:09:16;;;;;;;20.55;10.20;;;;;;;-3.43;86.04;99723.53;5086187;28;20200;-59
2023/03/02 04:11:42;;;;;;;22.58;10.60;;;;;;;-3.61;86.88;99730.47;5046696;28;20049;-59
2023/03/02 04:14:08;;;;;;;20.10;10.63;;;;;;;-3.32;89.45;99736.50;5077360;28;20039;-59
2023/03/02 04:16:34;;;;;;;23.55;11.18;;;;;;;-3.32;87.09;99739.13;5063860;28;20020;-59
2023/03/02 04:18:59;;;;;;;24.50;11.98;;;;;;;-3.35;86.60;99736.75;5081175;28;20082;-59
2023/03/02 04:21:25;;;;;;;26.73;11.85;;;;;;;-3.39;86.99;99735.41;5078944;28;20078;-59
2023/03/02 04:23:50;;;;;;;29.23;12.63;;;;;;;-3.14;87.96;99735.78;5078588;28;20478;-59
2023/03/02 04:26:16;;;;;;;21.48;12.10;;;;;;;-2.65;89.66;99732.00;5085339;28;20036;-59
2023/03/02 04:28:41;;;;;;;18.67;10.18;;;;;;;-2.69;86.90;99737.69;5078668;28;20035;-59
2023/03/02 04:31:06;;;;;;;18.98;9.27;;;;;;;-2.63;88.41;99737.09;5061686;28;20463;-59
2023/03/02 04:33:32;;;;;;;21.83;11.25;;;;;;;-2.86;89.27;99740.09;5077585;28;20026;-59
2023/03/02 04:35:57;;;;;;;16.63;9.38;;;;;;;-2.50;90.21;99740.22;5079916;28;20107;-59
2023/03/02 04:38:23;;;;;;;24.30;10.18;;;;;;;-2.74;84.18;99739.94;5085543;28;20024;-59
2023/03/02 04:40:49;;;;;;;70.22;51.95;;;;;;;-2.76;93.71;99740.06;5082197;28;20448;-59
2023/03/02 04:43:14;;;;;;;20.33;9.95;;;;;;;-2.74;92.32;99746.00;5081802;28;20360;-59
2023/03/02 04:45:39;;;;;;;21.55;10.80;;;;;;;-2.83;89.50;99745.03;5076181;28;20021;-59
2023/03/02 04:48:05;;;;;;;22.20;11.18;;;;;;;-2.96;86.99;99741.94;5075265;28;20037;-59
2023/03/02 04:50:31;;;;;;;22.15;11.27;;;;;;;-3.01;86.83;99740.72;5083458;28;20027;-59
2023/03/02 04:52:56;;;;;;;22.38;10.45;;;;;;;-3.02;86.91;99742.50;5074365;28;20373;-59
2023/03/02 04:55:22;;;;;;;18.80;9.95;;;;;;;-3.06;85.25;99756.88;5082828;28;20506;-59
2023/03/02 04:57:48;;;;;;;22.25;10.02;;;;;;;-2.99;84.79;99752.72;5057252;28;20036;-59
2023/03/02 05:00:15;;;;;;;20.73;9.77;;;;;;;-2.98;84.21;99741.25;5073881;28;20036;-59
2023/03/02 05:02:51;;;;;;;23.10;10.73;;;;;;;-2.95;85.01;99751.44;5080075;28;20225;-59
2023/03/02 05:05:20;;;;;;;23.90;10.57;;;;;;;-2.99;84.88;99746.66;5037468;28;20052;-59
2023/03/02 05:07:45;;;;;;;19.67;10.82;;;;;;;-3.03;84.34;99746.09;5049212;28;20032;-60
2023/03/02 05:10:12;;;;;;;20.45;10.63;;;;;;;-3.08;84.75;99743.06;5080381;28;20040;-59
2023/03/02 05:12:56;;;;;;;23.30;11.35;;;;;;;-3.07;86.61;99745.56;5081750;28;20067;-59
2023/03/02 05:15:42;;;;;;;24.75;10.90;;;;;;;-3.15;86.55;99741.97;5075513;28;20032;-59
2023/03/02 05:18:11;;;;;;;22.45;10.05;;;;;;;-2.92;90.71;99740.69;5072886;28;20048;-60
2023/03/02 05:20:36;;;;;;;21.65;10.65;;;;;;;-2.90;91.03;99730.03;5077970;28;20114;-59
2023/03/02 05:23:04;;;;;;;23.55;12.27;;;;;;;-2.99;88.47;99741.41;5076561;28;20153;-59
2023/03/02 05:25:30;;;;;;;37.92;13.88;;;;;;;-2.87;91.63;99733.22;5070608;28;20328;-59
2023/03/02 05:27:56;;;;;;;22.92;10.93;;;;;;;-3.17;87.83;99736.03;5058847;28;20040;-59
2023/03/02 05:30:21;;;;;;;18.60;10.85;;;;;;;-3.18;89.95;99742.25;5084089;28;20463;-60
2023/03/02 05:32:47;;;;;;;29.42;10.85;;;;;;;-3.26;90.65;99745.59;5079906;28;20039;-59
2023/03/02 05:35:12;;;;;;;22.55;11.10;;;;;;;-3.31;93.00;99740.75;5060049;28;20039;-59
2023/03/02 05:37:43;;;;;;;22.27;12.02;;;;;;;-3.69;89.12;99734.59;5085232;28;20050;-59
2023/03/02 05:40:13;;;;;;;21.38;10.90;;;;;;;-3.80;91.14;99741.75;5083054;28;20052;-59
2023/03/02 05:42:39;;;;;;;28.55;11.35;;;;;;;-4.21;90.74;99743.66;5081587;28;20427;-59
2023/03/02 05:45:06;;;;;;;25.60;11.27;;;;;;;-3.91;90.38;99745.34;5063577;28;20024;-59
2023/03/02 05:47:31;;;;;;;24.00;10.93;;;;;;;-3.40;92.64;99744.22;5071857;28;20079;-59
2023/03/02 05:49:58;;;;;;;29.17;10.95;;;;;;;-3.23;87.62;99744.47;5075676;28;20486;-59
2023/03/02 05:52:23;;;;;;;21.42;10.93;;;;;;;-3.23;90.77;99747.94;5083882;28;20027;-60
2023/03/02 05:54:49;;;;;;;22.48;11.15;;;;;;;-3.51;88.99;99747.81;5076383;28;20032;-59
2023/03/02 05:57:14;;;;;;;22.50;11.95;;;;;;;-3.62;90.47;99753.22;5087318;28;20059;-59
2023/03/02 05:59:40;;;;;;;23.73;10.90;;;;;;;-3.75;89.73;99756.09;5078315;28;20036;-59
2023/03/02 06:02:05;;;;;;;24.63;11.55;;;;;;;-3.70;93.15;99759.13;5059428;28;20395;-59
2023/03/02 06:04:30;;;;;;;23.92;11.77;;;;;;;-3.79;91.07;99757.34;5079038;28;20040;-59
2023/03/02 06:06:56;;;;;;;22.30;11.68;;;;;;;-3.82;91.80;99756.78;5079761;28;20441;-59
2023/03/02 06:09:21;;;;;;;22.98;11.75;;;;;;;-3.12;93.00;99755.66;5084837;28;20032;-59
2023/03/02 06:11:47;;;;;;;20.63;10.60;;;;;;;-3.21;92.44;99755.66;5035080;28;20041;-59
2023/03/02 06:14:13;;;;;;;23.77;10.68;;;;;;;-3.06;95.14;99757.69;5062825;28;20150;-59
2023/03/02 06:16:38;;;;;;;22.38;9.52;;;;;;;-3.19;87.18;99756.34;5065088;28;20028;-59
2023/03/02 06:19:04;;;;;;;19.52;10.13;;;;;;;-3.07;87.99;99761.28;5067034;28;20033;-59
2023/03/02 06:21:32;;;;;;;21.20;9.90;;;;;;;-3.07;86.28;99765.69;5065615;28;20078;-59
2023/03/02 06:23:57;;;;;;;23.08;9.65;;;;;;;-2.95;86.90;99764.56;5056350;28;20064;-58
2023/03/02 06:26:23;;;;;;;25.95;10.07;;;;;;;-2.76;88.13;99768.94;5068205;28;20024;-58
2023/03/02 06:28:48;;;;;;;21.17;10.52;;;;;;;-3.01;87.52;99764.31;5059202;28;20028;-59
2023/03/02 06:31:14;;;;;;;21.65;10.43;;;;;;;-2.73;93.32;99767.81;5059970;28;20570;-58
2023/03/02 06:33:39;;;;;;;27.38;11.98;;;;;;;-2.83;86.80;99776.53;5053788;28;20442;-58
2023/03/02 06:36:05;;;;;;;21.17;12.65;;;;;;;-2.67;86.20;99772.47;5067821;28;20029;-58
2023/03/02 06:38:30;;;;;;;25.05;11.80;;;;;;;-2.55;85.09;99773.13;5053808;28;20529;-58
2023/03/02 06:40:56;;;;;;;32.58;14.95;;;;;;;-2.49;84.47;99777.81;5066489;28;20702;-58
2023/03/02 06:43:21;;;;;;;35.05;16.08;;;;;;;-2.43;83.14;99774.59;5055557;28;20028;-59
2023/03/02 06:45:47;;;;;;;43.95;20.58;;;;;;;-2.39;82.35;99776.78;5060283;28;20028;-59
2023/03/02 06:48:12;;;;;;;43.38;18.48;;;;;;;-2.06;84.06;99779.78;5054529;28;20043;-59
2023/03/02 06:50:38;;;;;;;55.53;23.88;;;;;;;-2.08;81.64;99773.03;5054438;28;20040;-59
2023/03/02 06:53:03;;;;;;;32.58;14.65;;;;;;;-1.68;78.78;99772.59;5055311;28;20033;-59
2023/03/02 06:55:29;;;;;;;28.90;13.70;;;;;;;-0.37;73.92;99778.75;5057826;28;20442;-59
2023/03/02 06:57:54;;;;;;;32.67;15.52;;;;;;;0.08;71.05;99780.22;5060422;28;20048;-59
2023/03/02 07:00:25;;;;;;;23.17;11.57;;;;;;;1.22;67.99;99783.88;5057231;28;20031;-59
2023/03/02 07:02:50;;;;;;;20.15;10.20;;;;;;;1.52;63.90;99787.59;5055814;28;20351;-60
2023/03/02 07:05:16;;;;;;;25.65;9.32;;;;;;;0.69;64.95;99780.78;5060895;28;20033;-59
2023/03/02 07:07:41;;;;;;;17.77;9.63;;;;;;;0.95;65.64;99799.09;5064084;28;20024;-59
2023/03/02 07:10:08;;;;;;;25.15;10.05;;;;;;;1.97;61.55;99779.97;5058287;28;20029;-59
2023/03/02 07:12:33;;;;;;;17.85;9.88;;;;;;;1.20;63.39;99791.97;5071334;28;20584;-59
2023/03/02 07:14:59;;;;;;;17.48;9.00;;;;;;;1.23;63.00;99790.81;5084796;28;20043;-59
2023/03/02 07:17:24;;;;;;;22.73;9.90;;;;;;;1.27;64.20;99782.38;5083756;28;20035;-59
2023/03/02 07:19:50;;;;;;;23.02;12.40;;;;;;;2.21;60.26;99784.31;5082504;28;20043;-59
2023/03/02 07:22:15;;;;;;;28.08;12.98;;;;;;;2.34;59.40;99780.06;5080754;28;20036;-60
2023/03/02 07:24:41;;;;;;;25.85;12.32;;;;;;;2.74;58.33;99782.59;5055443;28;20536;-59
2023/03/02 07:27:06;;;;;;;38.40;14.35;;;;;;;2.67;57.77;99785.16;5081742;28;20111;-60
2023/03/02 07:29:34;;;;;;;40.97;13.65;;;;;;;1.58;63.39;99781.63;5079562;28;20020;-59
2023/03/02 07:31:59;;;;;;;34.25;13.48;;;;;;;2.50;59.06;99773.03;5081764;28;20129;-60
2023/03/02 07:34:25;;;;;;;27.38;13.55;;;;;;;2.99;57.29;99778.72;5074431;28;20567;-59
2023/03/02 07:36:51;;;;;;;29.73;12.55;;;;;;;3.15;56.99;99782.25;5083370;28;20493;-59
2023/03/02 07:39:16;;;;;;;29.38;12.73;;;;;;;2.91;58.15;99776.16;5084064;28;20522;-59
2023/03/02 07:41:42;;;;;;;23.52;12.00;;;;;;;3.23;56.80;99780.34;5078705;28;20103;-59
2023/03/02 07:44:07;;;;;;;24.50;11.93;;;;;;;2.68;57.91;99776.19;5064546;28;20123;-59
2023/03/02 07:46:33;;;;;;;28.23;10.73;;;;;;;2.98;57.94;99781.56;5076477;28;20029;-59
2023/03/02 07:48:58;;;;;;;22.05;10.80;;;;;;;3.54;55.66;99784.63;5080526;28;20258;-59
2023/03/02 07:51:24;;;;;;;24.85;12.20;;;;;;;4.14;54.05;99781.91;5078809;28;20347;-60
2023/03/02 07:53:49;;;;;;;27.40;11.68;;;;;;;3.64;54.93;99779.91;5074350;28;20447;-60
2023/03/02 07:56:15;;;;;;;27.33;12.02;;;;;;;3.99;53.77;99785.41;5075820;28;20020;-61
2023/03/02 07:58:40;;;;;;;20.60;10.60;;;;;;;5.13;50.10;99782.00;5069732;28;20013;-60
2023/03/02 08:01:06;;;;;;;28.73;13.48;;;;;;;4.76;51.07;99786.63;5082358;28;20123;-60
2023/03/02 08:03:31;;;;;;;21.63;10.98;;;;;;;4.19;51.37;99785.63;5088322;28;20034;-60
2023/03/02 08:05:57;;;;;;;24.52;11.13;;;;;;;4.60;51.41;99782.41;5084825;28;20035;-60
2023/03/02 08:08:22;;;;;;;21.77;11.93;;;;;;;4.45;50.95;99786.94;5076369;28;20508;-60
2023/03/02 08:10:47;;;;;;;21.45;11.27;;;;;;;4.65;51.25;99779.19;5057134;28;20031;-60
2023/03/02 08:13:13;;;;;;;27.15;11.85;;;;;;;3.76;52.62;99777.59;5077250;28;20035;-60
2023/03/02 08:15:38;;;;;;;26.83;12.82;;;;;;;4.07;53.09;99792.47;5054805;28;20061;-60
2023/03/02 08:18:04;;;;;;;23.38;13.18;;;;;;;4.64;52.14;99782.81;5075124;28;20051;-59
2023/03/02 08:20:29;;;;;;;23.30;12.82;;;;;;;5.10;52.36;99780.56;5084527;28;20495;-59
2023/03/02 08:22:55;;;;;;;25.98;13.00;;;;;;;4.50;51.72;99788.03;5076250;28;20024;-59
2023/03/02 08:25:20;;;;;;;30.00;14.30;;;;;;;4.61;52.22;99780.56;5059687;28;20028;-59
2023/03/02 08:27:46;;;;;;;24.17;12.45;;;;;;;5.03;50.44;99787.66;5069865;28;20352;-59
2023/03/02 08:30:11;;;;;;;29.85;11.68;;;;;;;5.43;50.85;99782.63;5080925;28;20065;-60
2023/03/02 08:32:37;;;;;;;25.20;11.70;;;;;;;5.94;49.29;99786.78;5074868;28;20028;-60
2023/03/02 08:35:03;;;;;;;26.25;11.48;;;;;;;6.58;47.93;99781.03;5076098;28;20028;-60
2023/03/02 08:37:29;;;;;;;17.70;10.27;;;;;;;6.54;48.11;99778.97;5078560;28;20394;-59
2023/03/02 08:39:54;;;;;;;20.65;10.40;;;;;;;6.53;48.13;99772.84;5071046;28;20048;-60
2023/03/02 08:42:20;;;;;;;18.20;10.18;;;;;;;6.72;48.32;99778.41;5073248;28;20016;-60
2023/03/02 08:44:45;;;;;;;21.10;10.93;;;;;;;6.63;47.43;99769.78;5058216;28;20032;-60
2023/03/02 08:47:10;;;;;;;24.67;10.85;;;;;;;6.29;47.66;99779.56;5070516;28;20024;-60
2023/03/02 08:49:39;;;;;;;20.77;10.57;;;;;;;6.22;47.31;99771.53;5079468;28;20245;-59
2023/03/02 08:52:05;;;;;;;19.60;9.77;;;;;;;5.52;48.58;99772.66;5079298;28;20123;-61
2023/03/02 08:54:33;;;;;;;22.85;9.32;;;;;;;6.09;49.05;99757.38;5077938;28;20038;-60
2023/03/02 08:56:58;;;;;;;33.25;10.55;;;;;;;6.29;49.77;99754.75;5052488;28;20111;-60
2023/03/02 08:59:24;;;;;;;26.85;11.10;;;;;;;5.97;48.68;99757.16;5079988;28;20032;-60
2023/03/02 09:01:49;;;;;;;22.58;10.25;;;;;;;7.41;48.50;99756.59;5075598;28;20059;-60
2023/03/02 09:04:14;;;;;;;30.40;10.43;;;;;;;7.39;47.01;99745.34;5081417;28;20027;-60
2023/03/02 09:06:41;;;;;;;19.63;10.15;;;;;;;6.79;46.81;99755.22;5077666;28;20071;-60
2023/03/02 09:09:07;;;;;;;21.90;11.10;;;;;;;7.34;46.32;99753.16;5081106;28;20056;-60
2023/03/02 09:11:32;;;;;;;18.88;9.82;;;;;;;7.72;46.07;99745.22;5079634;28;20075;-60
2023/03/02 09:13:58;;;;;;;24.35;10.63;;;;;;;7.05;46.17;99755.22;5072835;28;20508;-59
2023/03/02 09:16:24;;;;;;;23.05;10.07;;;;;;;7.07;46.60;99750.50;5082324;28;20526;-60
2023/03/02 09:18:50;;;;;;;27.77;10.80;;;;;;;7.62;45.83;99752.88;5075853;28;20024;-60
2023/03/02 09:21:15;;;;;;;24.90;10.70;;;;;;;7.75;46.01;99742.13;5078455;28;20036;-60
2023/03/02 09:23:40;;;;;;;26.88;10.63;;;;;;;8.04;45.12;99737.31;5081038;28;20028;-60
2023/03/02 09:26:06;;;;;;;15.65;9.60;;;;;;;7.41;43.65;99753.94;5081666;28;20032;-60
2023/03/02 09:28:31;;;;;;;20.33;9.77;;;;;;;5.67;45.27;99751.25;5075542;28;20024;-59
2023/03/02 09:30:58;;;;;;;15.50;10.02;;;;;;;5.09;48.18;99748.88;5073904;28;20032;-59
2023/03/02 09:33:23;;;;;;;20.17;11.07;;;;;;;6.19;48.47;99742.69;5077970;28;20020;-59
2023/03/02 09:35:49;;;;;;;22.15;10.48;;;;;;;7.34;45.91;99735.28;5081774;28;20025;-59
2023/03/02 09:38:15;;;;;;;23.50;9.77;;;;;;;8.26;44.56;99745.78;5083779;28;20021;-60
2023/03/02 09:41:08;;;;;;;23.65;10.77;;;;;;;8.96;42.71;99740.38;5068259;28;20483;-59
2023/03/02 09:43:51;;;;;;;30.98;10.27;;;;;;;7.84;44.47;99742.72;5079047;28;20035;-59
2023/03/02 09:46:21;;;;;;;19.00;10.90;;;;;;;7.19;43.52;99744.53;5060115;28;20040;-59
2023/03/02 09:49:04;;;;;;;19.15;9.85;;;;;;;6.11;45.70;99748.16;5065455;28;20458;-59
2023/03/02 09:51:38;;;;;;;19.88;10.45;;;;;;;6.50;45.85;99741.28;5072331;28;20497;-59
2023/03/02 09:54:14;;;;;;;17.33;9.90;;;;;;;6.22;46.12;99744.13;5075708;28;20412;-59
2023/03/02 09:56:53;;;;;;;24.77;10.77;;;;;;;6.81;45.73;99734.53;5059635;28;20032;-59
2023/03/02 09:59:53;;;;;;;20.98;10.00;;;;;;;7.46;45.11;99746.16;5075721;28;20036;-60
2023/03/02 10:02:27;;;;;;;20.42;10.40;;;;;;;7.62;44.84;99742.19;5058371;28;20478;-60
2023/03/02 10:04:54;;;;;;;22.90;10.27;;;;;;;6.86;44.65;99756.91;5078659;28;20123;-59
2023/03/02 10:07:26;;;;;;;18.95;10.02;;;;;;;6.49;45.85;99758.31;5064985;28;20065;-59
2023/03/02 10:09:52;;;;;;;17.08;9.82;;;;;;;6.76;46.20;99747.66;5071249;28;20107;-60
2023/03/02 10:12:42;;;;;;;27.13;11.43;;;;;;;7.01;45.21;99754.00;5075775;28;20043;-59
2023/03/02 10:15:21;;;;;;;16.70;9.07;;;;;;;6.38;47.17;99748.22;5062605;28;20082;-60
2023/03/02 10:17:51;;;;;;;18.38;9.98;;;;;;;7.39;45.02;99745.34;5064201;28;20449;-59
2023/03/02 10:20:19;;;;;;;;;;;;;;;7.04;47.17;99747.44;5077220;28;20718;-59
2023/03/02 10:22:49;;;;;;;18.60;9.80;;;;;;;7.42;44.51;99741.44;5071544;28;20207;-60
2023/03/02 10:25:29;;;;;;;20.40;10.93;;;;;;;6.73;46.59;99745.41;5045851;28;20037;-60
2023/03/02 10:28:00;;;;;;;20.10;9.95;;;;;;;6.97;45.51;99747.44;5061324;28;20032;-60
2023/03/02 10:30:35;;;;;;;14.68;9.55;;;;;;;7.04;45.23;99750.94;5053647;28;20115;-60
2023/03/02 10:33:11;;;;;;;19.60;10.27;;;;;;;6.91;46.08;99737.59;5044632;28;20028;-60
2023/03/02 10:35:36;;;;;;;20.10;9.75;;;;;;;7.04;45.66;99732.28;5078041;28;20094;-60
2023/03/02 10:38:21;;;;;;;24.20;10.98;;;;;;;7.55;44.84;99730.72;5086682;28;20024;-60
2023/03/02 10:40:58;;;;;;;20.42;9.68;;;;;;;7.21;45.86;99732.63;5082624;28;20020;-60
2023/03/02 10:43:48;;;;;;;17.75;10.35;;;;;;;7.60;45.52;99730.09;5059566;28;20573;-60
2023/03/02 10:46:13;;;;;;;22.85;9.98;;;;;;;7.50;45.75;99730.53;5061297;28;20063;-59
2023/03/02 10:48:58;;;;;;;22.83;11.48;;;;;;;7.55;45.70;99720.88;5060246;28;20054;-59
2023/03/02 10:51:28;;;;;;;19.70;10.95;;;;;;;7.16;46.27;99712.97;5072783;28;20483;-60
2023/03/02 10:54:09;;;;;;;20.50;9.55;;;;;;;7.30;45.56;99718.06;5068221;28;20501;-60
2023/03/02 10:56:34;;;;;;;;;;;;;;;7.50;45.89;99720.69;5079113;28;20024;-59
2023/03/02 10:59:02;;;;;;;19.58;10.15;;;;;;;7.59;46.80;99712.44;5074770;28;19920;-60
2023/03/02 11:01:29;;;;;;;20.90;11.05;;;;;;;7.82;46.36;99707.44;5080346;28;20372;-59
2023/03/02 11:03:58;;;;;;;21.83;11.20;;;;;;;7.54;46.41;99705.91;5074935;28;20020;-59
2023/03/02 11:06:24;;;;;;;18.75;10.52;;;;;;;8.20;45.53;99709.28;5072366;28;20040;-60
2023/03/02 11:09:04;;;;;;;23.25;10.82;;;;;;;8.73;44.96;99708.09;5072230;28;20076;-60
2023/03/02 11:11:29;;;;;;;19.80;10.80;;;;;;;8.71;45.48;99715.50;5071305;28;20871;-60
2023/03/02 11:13:55;;;;;;;18.30;10.30;;;;;;;8.81;43.56;99708.66;5075236;28;20036;-60
2023/03/02 11:16:23;;;;;;;21.02;10.80;;;;;;;8.39;44.53;99708.34;5046074;28;20391;-60
2023/03/02 11:19:06;;;;;;;18.52;10.23;;;;;;;7.43;47.26;99698.53;5086500;28;20020;-60
2023/03/02 11:21:37;;;;;;;18.33;10.20;;;;;;;7.59;47.72;99696.44;5071670;28;20051;-59
2023/03/02 11:24:14;;;;;;;17.63;10.57;;;;;;;8.26;47.08;99704.91;5073579;28;20292;-60
2023/03/02 11:26:49;;;;;;;18.83;10.45;;;;;;;8.54;46.84;99693.88;5079829;28;20024;-60